Time;durP1;ratioP1;P1;durP2;ratioP2;P2;SDS_P1;SDS_P2;PMS_P1;PMS_P2;Temp;Humidity;BMP_temperature;BMP_pressure;BME280_temperature;BME280_humidity;BME280_pressure;Samples;Min_cycle;Max_cycle;Signal;HPM_P1;HPM_P2
2023/06/17 00:01:46;;;;;;;7.30;5.13;;;;;;;15.37;55.39;98608.09;4973967;28;20284;-57
2023/06/17 00:04:13;;;;;;;6.07;5.10;;;;;;;15.32;55.60;98603.41;4962808;28;20237;-57
2023/06/17 00:06:40;;;;;;;12.00;5.27;;;;;;;15.26;56.18;98604.13;4968608;28;20282;-56
2023/06/17 00:09:07;;;;;;;7.73;5.60;;;;;;;15.22;56.27;98604.66;4951243;28;20710;-55
2023/06/17 00:11:33;;;;;;;8.27;5.30;;;;;;;15.29;57.19;98597.69;4966128;28;20745;-56
2023/06/17 00:14:01;;;;;;;9.83;5.30;;;;;;;15.29;56.73;98592.41;4963825;28;20232;-57
2023/06/17 00:16:28;;;;;;;8.00;4.77;;;;;;;15.26;56.51;98587.53;4970429;28;20255;-56
2023/06/17 00:18:55;;;;;;;8.07;5.13;;;;;;;15.28;56.36;98590.78;4968673;28;20230;-57
2023/06/17 00:21:21;;;;;;;9.07;5.23;;;;;;;15.34;56.87;98590.06;4958140;28;20237;-56
2023/06/17 00:23:48;;;;;;;10.80;5.50;;;;;;;15.25;56.31;98591.97;4958943;28;20732;-57
2023/06/17 00:26:15;;;;;;;6.77;5.20;;;;;;;15.20;56.27;98587.25;4969887;28;20256;-57
2023/06/17 00:28:41;;;;;;;8.40;5.03;;;;;;;15.13;57.34;98581.09;4959675;28;20238;-57
2023/06/17 00:31:09;;;;;;;8.60;5.30;;;;;;;15.25;56.47;98583.25;4950397;28;20251;-57
2023/06/17 00:33:37;;;;;;;6.90;5.50;;;;;;;15.18;56.38;98576.09;4955330;28;20218;-56
2023/06/17 00:36:04;;;;;;;7.50;5.20;;;;;;;15.13;56.64;98585.53;4943313;28;20292;-57
2023/06/17 00:38:30;;;;;;;9.13;5.37;;;;;;;15.25;56.78;98588.53;4971882;28;20310;-56
2023/06/17 00:40:57;;;;;;;8.63;5.40;;;;;;;15.28;56.81;98577.63;4960481;28;20231;-56
2023/06/17 00:43:23;;;;;;;10.50;6.00;;;;;;;15.24;55.97;98574.56;4947278;28;20238;-57
2023/06/17 00:45:51;;;;;;;8.10;4.97;;;;;;;15.22;56.66;98587.09;4963444;28;20275;-57
2023/06/17 00:48:19;;;;;;;7.70;4.83;;;;;;;15.23;55.84;98585.25;4953228;28;20225;-57
2023/06/17 00:50:46;;;;;;;10.20;5.37;;;;;;;15.22;56.08;98581.81;4953084;28;20228;-56
2023/06/17 00:53:13;;;;;;;8.35;5.65;;;;;;;15.25;56.56;98580.63;4968191;28;20433;-57
2023/06/17 00:55:40;;;;;;;10.73;4.83;;;;;;;15.15;56.90;98579.09;4976898;28;20286;-56
2023/06/17 00:58:07;;;;;;;8.60;5.17;;;;;;;15.16;56.83;98579.91;4948770;28;20325;-56
2023/06/17 01:00:33;;;;;;;7.63;5.77;;;;;;;15.13;56.59;98577.66;4971081;28;20785;-56
2023/06/17 01:03:02;;;;;;;9.50;5.10;;;;;;;15.15;56.80;98584.34;4931290;28;20241;-56
2023/06/17 01:05:30;;;;;;;5.97;5.23;;;;;;;15.13;57.11;98575.03;4918599;28;20306;-57
2023/06/17 01:08:12;;;;;;;8.50;5.60;;;;;;;15.10;57.54;98572.75;4954336;28;20291;-57
2023/06/17 01:10:47;;;;;;;9.37;5.30;;;;;;;15.16;58.51;98569.41;4944563;28;20234;-56
2023/06/17 01:13:16;;;;;;;9.30;4.90;;;;;;;15.16;57.47;98566.78;4945977;28;20234;-56
2023/06/17 01:15:46;;;;;;;6.50;4.53;;;;;;;15.17;57.95;98571.03;4971376;28;20246;-58
2023/06/17 01:18:17;;;;;;;6.73;4.80;;;;;;;15.28;58.13;98565.31;4963975;28;20339;-58
2023/06/17 01:20:47;;;;;;;7.33;5.30;;;;;;;15.25;57.73;98562.22;4966008;28;20800;-57
2023/06/17 01:23:15;;;;;;;10.43;4.80;;;;;;;15.19;57.41;98567.22;4961754;28;20230;-57
2023/06/17 01:25:44;;;;;;;6.43;4.90;;;;;;;15.22;57.92;98565.22;4966752;28;20222;-57
2023/06/17 01:28:16;;;;;;;9.70;5.40;;;;;;;15.24;57.44;98569.31;4965086;28;20237;-58
2023/06/17 01:30:43;;;;;;;9.57;5.63;;;;;;;15.18;57.99;98568.22;4983835;28;20227;-58
2023/06/17 01:33:12;;;;;;;7.37;5.30;;;;;;;15.17;57.56;98573.66;4979964;28;20258;-58
2023/06/17 01:35:41;;;;;;;9.93;5.53;;;;;;;15.18;58.71;98572.66;4983617;28;20271;-58
2023/06/17 01:38:15;;;;;;;7.07;5.10;;;;;;;15.19;58.70;98566.41;4982000;28;21236;-58
2023/06/17 01:40:44;;;;;;;12.20;5.87;;;;;;;15.11;58.56;98569.94;4968569;28;20315;-58
2023/06/17 01:43:13;;;;;;;6.90;5.07;;;;;;;15.09;59.67;98563.25;4981960;28;20247;-58
2023/06/17 01:45:42;;;;;;;10.80;5.10;;;;;;;14.99;59.58;98574.00;4968192;28;20221;-58
2023/06/17 01:48:08;;;;;;;9.13;5.47;;;;;;;14.93;59.73;98569.47;4978970;28;20246;-58
2023/06/17 01:50:35;;;;;;;11.47;5.53;;;;;;;14.85;59.91;98568.56;4981345;28;20271;-58
2023/06/17 01:53:03;;;;;;;9.80;5.03;;;;;;;14.79;60.00;98565.84;4962678;28;20239;-58
2023/06/17 01:55:32;;;;;;;6.87;4.93;;;;;;;14.80;59.70;98562.22;4958512;28;20271;-57
2023/06/17 01:57:59;;;;;;;12.27;5.67;;;;;;;14.87;59.30;98563.13;4961140;28;20236;-57
2023/06/17 02:00:26;;;;;;;10.43;5.57;;;;;;;14.84;60.42;98564.31;4965750;28;20227;-58
2023/06/17 02:02:54;;;;;;;11.10;5.63;;;;;;;14.78;59.09;98556.34;4978361;28;20229;-58
2023/06/17 02:05:22;;;;;;;9.43;5.47;;;;;;;14.80;59.20;98568.31;4980024;28;20297;-58
2023/06/17 02:07:49;;;;;;;9.33;5.40;;;;;;;14.74;60.06;98563.78;4964790;28;20309;-58
2023/06/17 02:10:18;;;;;;;8.87;5.80;;;;;;;14.70;59.72;98562.50;4973957;28;20220;-58
2023/06/17 02:12:44;;;;;;;7.67;5.30;;;;;;;14.64;60.00;98563.97;4967150;28;20287;-58
2023/06/17 02:15:38;;;;;;;8.33;5.40;;;;;;;14.63;60.04;98564.19;4982091;28;20404;-58
2023/06/17 02:18:05;;;;;;;8.20;5.57;;;;;;;14.62;61.18;98565.97;4961229;28;20242;-58
2023/06/17 02:20:32;;;;;;;9.90;5.10;;;;;;;14.62;60.45;98563.34;4981550;28;20217;-58
2023/06/17 02:22:59;;;;;;;6.70;5.90;;;;;;;14.56;59.66;98557.00;4970284;28;20229;-58
2023/06/17 02:25:25;;;;;;;7.73;5.50;;;;;;;14.50;60.89;98557.72;4982944;28;20258;-59
2023/06/17 02:27:52;;;;;;;8.03;5.33;;;;;;;14.45;61.81;98550.34;4963439;28;20283;-58
2023/06/17 02:30:21;;;;;;;8.93;6.27;;;;;;;14.39;61.48;98556.31;4967013;28;20811;-58
2023/06/17 02:32:49;;;;;;;6.53;5.23;;;;;;;14.42;62.67;98557.78;4963769;28;20774;-58
2023/06/17 02:35:20;;;;;;;7.90;5.63;;;;;;;14.34;62.41;98553.41;4966341;28;20222;-58
2023/06/17 02:37:47;;;;;;;8.03;5.50;;;;;;;14.21;61.95;98554.00;4960713;28;20239;-58
2023/06/17 02:40:18;;;;;;;9.37;4.83;;;;;;;14.26;61.65;98549.03;4951481;28;20244;-58
2023/06/17 02:42:44;;;;;;;7.20;5.47;;;;;;;14.28;61.81;98547.06;4963335;28;20288;-58
2023/06/17 02:45:36;;;;;;;7.60;5.73;;;;;;;14.27;62.22;98547.25;4981632;28;20244;-58
2023/06/17 02:48:04;;;;;;;10.00;6.10;;;;;;;14.28;61.71;98549.69;4956133;28;20223;-58
2023/06/17 02:50:30;;;;;;;7.70;5.37;;;;;;;14.25;62.32;98541.34;4966827;28;20597;-58
2023/06/17 02:52:57;;;;;;;8.47;5.43;;;;;;;14.20;62.92;98549.75;4961060;28;20731;-57
2023/06/17 02:55:28;;;;;;;11.93;5.93;;;;;;;14.14;62.89;98548.66;4964915;28;20231;-58
2023/06/17 02:57:55;;;;;;;8.20;5.67;;;;;;;14.22;61.12;98546.97;4960468;28;20238;-59
2023/06/17 03:00:23;;;;;;;8.30;5.40;;;;;;;14.22;61.37;98537.25;4965115;28;20253;-60
2023/06/17 03:02:50;;;;;;;8.97;5.73;;;;;;;14.23;61.09;98548.59;4960757;28;20311;-59
2023/06/17 03:05:20;;;;;;;7.63;5.40;;;;;;;14.31;61.62;98546.72;4982450;28;20811;-58
2023/06/17 03:07:47;;;;;;;6.97;5.37;;;;;;;14.31;62.60;98548.50;4972926;28;20222;-58
2023/06/17 03:10:18;;;;;;;8.57;5.50;;;;;;;14.17;61.97;98553.56;4980395;28;20213;-58
2023/06/17 03:12:49;;;;;;;7.97;5.67;;;;;;;14.16;61.76;98545.84;4963779;28;20225;-58
2023/06/17 03:15:18;;;;;;;8.87;6.10;;;;;;;14.10;61.19;98546.53;4982198;28;20209;-58
2023/06/17 03:17:45;;;;;;;7.37;5.57;;;;;;;14.10;62.28;98555.25;4966624;28;20230;-59
2023/06/17 03:20:18;;;;;;;8.27;5.70;;;;;;;14.08;61.67;98557.22;4961983;28;20226;-58
2023/06/17 03:22:47;;;;;;;8.97;5.30;;;;;;;14.08;63.60;98565.09;4967227;28;20265;-58
2023/06/17 03:25:18;;;;;;;7.63;5.30;;;;;;;14.03;62.23;98557.75;4972485;28;20242;-58
2023/06/17 03:27:44;;;;;;;7.73;5.33;;;;;;;13.94;62.68;98553.53;4965699;28;20218;-58
2023/06/17 03:33:26;;;;;;;8.13;5.83;;;;;;;14.01;63.10;98564.97;4923694;29;20315;-58
2023/06/17 03:35:53;;;;;;;9.63;5.33;;;;;;;13.96;62.65;98559.44;4909019;29;20614;-58
2023/06/17 03:38:21;;;;;;;6.63;5.37;;;;;;;13.93;62.34;98556.34;4911339;29;20219;-58
2023/06/17 03:40:48;;;;;;;9.63;5.50;;;;;;;14.00;62.69;98558.09;4926927;28;20228;-58
2023/06/17 03:43:15;;;;;;;10.37;4.80;;;;;;;14.06;62.61;98555.75;4942309;29;20221;-58
2023/06/17 03:45:42;;;;;;;8.47;5.30;;;;;;;14.04;62.43;98550.69;4931371;29;20761;-58
2023/06/17 03:48:09;;;;;;;11.37;5.50;;;;;;;14.11;62.62;98561.31;4928922;29;20246;-58
2023/06/17 03:50:36;;;;;;;8.13;5.50;;;;;;;14.16;62.98;98553.72;4923657;29;20220;-58
2023/06/17 03:53:05;;;;;;;8.07;5.43;;;;;;;14.21;62.01;98556.63;4923944;29;20331;-59
2023/06/17 03:55:33;;;;;;;7.00;5.43;;;;;;;14.22;61.42;98547.75;4931458;29;20222;-58
2023/06/17 03:58:00;;;;;;;7.13;5.47;;;;;;;14.25;61.75;98554.47;4914033;29;20236;-58
2023/06/17 04:00:30;;;;;;;8.17;4.90;;;;;;;14.22;61.85;98554.84;4931902;29;20226;-58
2023/06/17 04:02:56;;;;;;;7.53;5.63;;;;;;;14.23;61.96;98554.66;4928373;29;20712;-58
2023/06/17 04:05:32;;;;;;;7.10;5.43;;;;;;;14.27;62.78;98561.19;4923374;29;20292;-59
2023/06/17 04:08:02;;;;;;;7.77;5.13;;;;;;;14.44;62.02;98559.22;4920714;29;20263;-59
2023/06/17 04:10:29;;;;;;;8.60;5.50;;;;;;;14.51;63.18;98559.34;4924502;29;20268;-58
2023/06/17 04:12:57;;;;;;;9.30;5.83;;;;;;;14.50;63.64;98556.88;4942633;29;20255;-58
2023/06/17 04:15:25;;;;;;;8.70;5.50;;;;;;;14.51;62.89;98559.34;4929788;29;20223;-57
2023/06/17 04:17:52;;;;;;;7.27;5.27;;;;;;;14.50;63.44;98557.72;4929088;28;20227;-58
2023/06/17 04:20:19;;;;;;;9.03;5.27;;;;;;;14.58;63.96;98564.69;4931366;29;20229;-58
2023/06/17 04:22:47;;;;;;;9.07;5.57;;;;;;;14.56;64.75;98575.38;4946323;29;20230;-58
2023/06/17 04:25:20;;;;;;;7.00;5.93;;;;;;;14.53;64.86;98574.91;4926974;29;20224;-58
2023/06/17 04:27:53;;;;;;;9.17;5.57;;;;;;;14.53;64.59;98575.75;4931752;29;20271;-58
2023/06/17 04:30:21;;;;;;;6.53;5.80;;;;;;;14.52;64.94;98582.00;4929052;29;20311;-59
2023/06/17 04:32:50;;;;;;;7.27;5.40;;;;;;;14.60;64.86;98581.09;4930679;29;20247;-59
2023/06/17 04:35:20;;;;;;;8.53;5.50;;;;;;;14.58;65.33;98583.91;4926351;29;20675;-59
2023/06/17 04:37:53;;;;;;;7.70;5.70;;;;;;;14.58;65.58;98589.16;4930217;29;20296;-59
2023/06/17 04:40:21;;;;;;;8.33;5.30;;;;;;;14.59;64.58;98584.72;4926575;29;20639;-59
2023/06/17 04:42:52;;;;;;;6.57;5.10;;;;;;;14.59;64.15;98579.47;4928895;29;20234;-58
2023/06/17 04:45:21;;;;;;;7.67;6.00;;;;;;;14.59;64.62;98585.53;4928805;29;20677;-58
2023/06/17 04:47:52;;;;;;;10.87;5.47;;;;;;;14.57;65.23;98584.91;4920707;29;20224;-58
2023/06/17 04:50:19;;;;;;;6.83;5.10;;;;;;;14.66;65.85;98588.25;4925408;29;20231;-58
2023/06/17 04:52:47;;;;;;;10.83;5.70;;;;;;;14.66;65.55;98587.47;4935301;29;20296;-58
2023/06/17 04:55:21;;;;;;;6.50;5.43;;;;;;;14.74;67.38;98582.97;4932520;29;20250;-58
2023/06/17 04:57:49;;;;;;;9.17;5.87;;;;;;;14.70;66.34;98580.88;4942364;28;20237;-59
2023/06/17 05:00:38;;;;;;;7.73;5.40;;;;;;;14.73;66.09;98580.53;4944781;28;20230;-58
2023/06/17 05:03:05;;;;;;;9.47;5.83;;;;;;;14.82;67.15;98589.13;4920983;28;20232;-58
2023/06/17 05:05:32;;;;;;;8.73;5.73;;;;;;;14.80;68.33;98586.69;4931048;29;20255;-58
2023/06/17 05:07:59;;;;;;;7.13;5.17;;;;;;;14.83;68.59;98591.59;4934723;29;20220;-58
2023/06/17 05:10:26;;;;;;;9.60;5.77;;;;;;;14.87;68.12;98584.16;4930541;29;20226;-59
2023/06/17 05:12:53;;;;;;;9.33;5.87;;;;;;;14.93;68.91;98587.88;4926851;29;20287;-59
2023/06/17 05:15:19;;;;;;;9.17;5.40;;;;;;;14.99;69.10;98587.97;4946159;28;20240;-58
2023/06/17 05:17:48;;;;;;;8.63;5.70;;;;;;;15.05;67.90;98589.06;4925546;29;20951;-57
2023/06/17 05:20:18;;;;;;;7.23;5.27;;;;;;;15.14;66.97;98595.88;4920832;29;20224;-59
2023/06/17 05:22:45;;;;;;;10.40;5.83;;;;;;;15.24;67.52;98589.50;4928889;29;20227;-59
2023/06/17 05:25:18;;;;;;;10.30;5.83;;;;;;;15.33;67.35;98588.44;4926889;29;20237;-58
2023/06/17 05:27:44;;;;;;;6.53;5.53;;;;;;;15.41;66.47;98585.69;4930824;29;20341;-59
2023/06/17 05:30:19;;;;;;;8.53;5.23;;;;;;;15.52;66.96;98600.19;4924867;29;20228;-58
2023/06/17 05:32:49;;;;;;;8.60;6.17;;;;;;;15.58;66.14;98588.13;4930170;29;20233;-58
2023/06/17 05:35:19;;;;;;;8.97;6.50;;;;;;;15.69;65.23;98602.63;4925515;29;20694;-58
2023/06/17 05:37:45;;;;;;;8.70;6.23;;;;;;;15.79;64.98;98597.88;4929921;29;20318;-58
2023/06/17 05:40:18;;;;;;;7.73;5.80;;;;;;;16.07;64.17;98598.00;4939949;29;20228;-59
2023/06/17 05:42:45;;;;;;;6.30;5.70;;;;;;;16.58;63.56;98603.31;4928829;29;20653;-58
2023/06/17 05:45:19;;;;;;;9.77;5.80;;;;;;;17.05;61.85;98606.31;4943304;28;20227;-59
2023/06/17 05:47:46;;;;;;;6.50;5.47;;;;;;;17.33;60.80;98608.09;4928795;29;20236;-59
2023/06/17 05:50:20;;;;;;;7.27;6.00;;;;;;;17.56;60.82;98610.44;4923921;29;20218;-59
2023/06/17 05:52:47;;;;;;;6.40;5.70;;;;;;;17.75;59.70;98613.34;4925805;29;20576;-59
2023/06/17 05:55:18;;;;;;;6.23;5.60;;;;;;;17.91;58.67;98612.19;4931682;28;20223;-59
2023/06/17 05:57:45;;;;;;;7.63;5.80;;;;;;;18.08;58.16;98612.66;4924295;29;20246;-58
2023/06/17 06:00:18;;;;;;;9.47;5.47;;;;;;;18.27;57.78;98614.53;4919148;28;20215;-59
2023/06/17 06:02:45;;;;;;;6.20;5.60;;;;;;;18.49;56.91;98617.00;4927922;29;20739;-59
2023/06/17 06:05:20;;;;;;;7.17;5.37;;;;;;;18.58;56.39;98617.59;4924975;29;20230;-59
2023/06/17 06:07:52;;;;;;;6.10;4.90;;;;;;;18.77;55.85;98621.25;4929419;29;20230;-59
2023/06/17 06:10:20;;;;;;;10.40;5.80;;;;;;;18.87;53.75;98629.59;4925793;29;20231;-59
2023/06/17 06:12:52;;;;;;;10.03;5.40;;;;;;;18.91;53.59;98619.44;4926680;29;20579;-59
2023/06/17 06:15:19;;;;;;;8.23;6.40;;;;;;;18.94;54.70;98620.84;4928417;28;20307;-59
2023/06/17 06:17:45;;;;;;;5.93;5.33;;;;;;;19.08;54.42;98626.97;4921593;29;20228;-59
2023/06/17 06:20:18;;;;;;;7.77;5.87;;;;;;;19.24;53.76;98628.34;4939186;28;20241;-59
2023/06/17 06:22:45;;;;;;;8.00;5.73;;;;;;;19.43;53.42;98634.59;4920756;29;20645;-59
2023/06/17 06:25:18;;;;;;;9.33;5.70;;;;;;;19.58;53.08;98639.66;4938336;28;20365;-59
2023/06/17 06:27:45;;;;;;;9.00;5.67;;;;;;;19.72;53.92;98643.06;4922494;29;20225;-59
2023/06/17 06:30:19;;;;;;;6.40;5.73;;;;;;;19.86;53.00;98644.63;4926477;29;20642;-59
2023/06/17 06:32:50;;;;;;;8.20;5.60;;;;;;;19.91;51.79;98639.53;4923085;29;20232;-59
2023/06/17 06:35:18;;;;;;;8.70;5.83;;;;;;;19.96;51.88;98646.84;4928222;29;20219;-59
2023/06/17 06:37:47;;;;;;;10.47;5.60;;;;;;;20.13;52.59;98644.53;4928804;29;20232;-59
2023/06/17 06:40:19;;;;;;;10.13;6.03;;;;;;;20.29;51.18;98652.97;4920688;29;20262;-60
2023/06/17 06:42:46;;;;;;;9.27;5.40;;;;;;;20.43;50.22;98656.38;4923844;29;20267;-60
2023/06/17 06:45:21;;;;;;;6.37;5.60;;;;;;;20.53;50.74;98654.06;4921112;29;20295;-60
2023/06/17 06:47:52;;;;;;;7.87;6.07;;;;;;;20.64;50.95;98655.19;4928482;29;20309;-60
2023/06/17 06:50:19;;;;;;;8.83;6.10;;;;;;;20.76;50.03;98658.78;4924807;29;20211;-60
2023/06/17 06:52:50;;;;;;;14.43;6.17;;;;;;;20.79;47.41;98657.53;4925824;29;20693;-60
2023/06/17 06:55:18;;;;;;;9.43;5.80;;;;;;;20.83;47.05;98661.38;4938005;28;20260;-59
2023/06/17 06:57:46;;;;;;;9.93;6.40;;;;;;;20.77;46.31;98663.06;4928445;29;20596;-59
2023/06/17 07:00:18;;;;;;;7.43;6.47;;;;;;;20.71;46.49;98669.22;4922875;29;20237;-59
2023/06/17 07:02:47;;;;;;;9.57;6.80;;;;;;;20.74;47.36;98671.44;4922948;29;20755;-59
2023/06/17 07:05:21;;;;;;;9.50;6.43;;;;;;;20.76;46.99;98671.19;4921817;29;20315;-59
2023/06/17 07:07:52;;;;;;;8.23;6.87;;;;;;;20.81;46.58;98667.94;4924824;29;20661;-59
2023/06/17 07:10:20;;;;;;;12.00;7.37;;;;;;;20.84;46.55;98673.63;4933546;29;20232;-59
2023/06/17 07:12:46;;;;;;;7.97;7.00;;;;;;;20.92;46.76;98668.03;4926322;29;20232;-60
2023/06/17 07:15:18;;;;;;;11.17;7.83;;;;;;;20.93;45.82;98663.56;4941111;28;20323;-59
2023/06/17 07:17:47;;;;;;;11.73;7.03;;;;;;;21.09;45.55;98668.31;4924114;29;20568;-59
2023/06/17 07:20:18;;;;;;;13.00;7.20;;;;;;;21.17;46.56;98671.72;4925519;29;20288;-59
2023/06/17 07:22:46;;;;;;;10.13;6.83;;;;;;;21.30;46.08;98668.13;4934735;29;20260;-59
2023/06/17 07:25:20;;;;;;;10.30;7.63;;;;;;;21.39;46.59;98666.78;4923609;28;20251;-59
2023/06/17 07:27:47;;;;;;;10.27;6.83;;;;;;;21.39;45.44;98667.59;4920011;29;20222;-59
2023/06/17 07:30:18;;;;;;;12.40;7.43;;;;;;;21.36;45.46;98664.59;4921689;29;20230;-59
2023/06/17 07:32:45;;;;;;;7.10;6.40;;;;;;;21.45;45.55;98673.06;4926684;29;20258;-60
2023/06/17 07:35:36;;;;;;;9.17;7.43;;;;;;;21.55;46.34;98667.25;4940508;28;20231;-59
2023/06/17 07:38:03;;;;;;;10.93;7.00;;;;;;;21.67;44.34;98660.19;4924314;29;20242;-59
2023/06/17 07:40:32;;;;;;;10.53;7.30;;;;;;;21.58;43.54;98656.19;4920982;29;20673;-60
2023/06/17 07:42:58;;;;;;;11.00;7.97;;;;;;;21.69;44.21;98660.78;4938583;29;20307;-60
2023/06/17 07:45:25;;;;;;;9.27;7.37;;;;;;;21.61;42.90;98661.84;4942710;28;20299;-59
2023/06/17 07:47:51;;;;;;;7.87;6.60;;;;;;;21.69;43.98;98658.13;4934681;29;20225;-60
2023/06/17 07:50:18;;;;;;;10.60;7.10;;;;;;;21.75;42.72;98664.38;4927959;29;20244;-59
2023/06/17 07:52:44;;;;;;;11.27;7.27;;;;;;;21.74;43.11;98666.22;4943818;29;20241;-59
2023/06/17 07:55:37;;;;;;;9.03;6.90;;;;;;;21.97;43.09;98660.22;4939738;28;20662;-59
2023/06/17 07:58:04;;;;;;;10.43;7.47;;;;;;;22.00;41.85;98656.28;4938962;28;20229;-59
2023/06/17 08:00:30;;;;;;;9.73;7.13;;;;;;;21.93;41.21;98655.56;4943313;28;20239;-60
2023/06/17 08:02:57;;;;;;;10.17;6.70;;;;;;;22.04;41.08;98652.16;4935594;29;20239;-59
2023/06/17 08:05:23;;;;;;;10.90;6.70;;;;;;;22.12;40.94;98656.34;4941747;28;20296;-59
2023/06/17 08:07:50;;;;;;;7.93;6.93;;;;;;;22.19;41.62;98658.91;4940581;29;20234;-60
2023/06/17 08:10:18;;;;;;;13.13;7.47;;;;;;;22.14;40.40;98648.97;4941610;28;20229;-59
2023/06/17 08:12:46;;;;;;;8.60;6.87;;;;;;;22.13;40.74;98644.69;4940063;29;20239;-59
2023/06/17 08:15:18;;;;;;;12.97;7.23;;;;;;;22.14;40.36;98648.13;4939834;28;20237;-59
2023/06/17 08:17:44;;;;;;;8.80;6.60;;;;;;;22.40;40.00;98649.59;4919223;29;20289;-60
2023/06/17 08:20:36;;;;;;;10.03;6.77;;;;;;;22.37;40.04;98644.72;4943616;28;20222;-60
2023/06/17 08:23:03;;;;;;;10.33;6.73;;;;;;;22.51;40.99;98651.50;4940692;29;20325;-60
2023/06/17 08:25:31;;;;;;;7.00;6.30;;;;;;;22.57;40.38;98636.50;4944481;28;20221;-60
2023/06/17 08:27:59;;;;;;;8.17;7.30;;;;;;;22.73;40.65;98642.97;4943323;29;20228;-60
2023/06/17 08:30:26;;;;;;;7.10;6.10;;;;;;;22.79;40.68;98638.59;4945408;28;20718;-60
2023/06/17 08:32:53;;;;;;;8.27;6.67;;;;;;;22.90;41.26;98642.28;4938443;29;20237;-61
2023/06/17 08:35:19;;;;;;;10.20;6.57;;;;;;;22.89;39.99;98638.81;4943202;28;20223;-60
2023/06/17 08:37:47;;;;;;;8.07;6.70;;;;;;;22.78;39.26;98629.78;4944996;29;20230;-60
2023/06/17 08:40:21;;;;;;;7.93;6.50;;;;;;;22.99;39.02;98636.38;4941757;28;20582;-60
2023/06/17 08:42:52;;;;;;;9.57;6.30;;;;;;;23.22;39.53;98641.94;4944958;29;20262;-60
2023/06/17 08:45:21;;;;;;;9.80;6.23;;;;;;;23.28;38.00;98636.50;4941077;28;20226;-60
2023/06/17 08:47:48;;;;;;;12.27;7.63;;;;;;;23.26;37.92;98632.47;4943696;29;20238;-60
2023/06/17 08:50:19;;;;;;;8.50;5.93;;;;;;;23.50;37.83;98635.91;4942484;29;20285;-60
2023/06/17 08:52:48;;;;;;;10.93;6.80;;;;;;;23.53;38.04;98635.44;4944550;29;20298;-60
2023/06/17 08:55:18;;;;;;;10.97;6.63;;;;;;;23.54;39.10;98625.56;4942592;28;20686;-60
2023/06/17 08:57:45;;;;;;;8.93;7.13;;;;;;;23.74;38.59;98631.31;4945197;28;20285;-60
2023/06/17 09:00:19;;;;;;;8.63;6.90;;;;;;;23.75;37.95;98634.78;4942158;28;20322;-60
2023/06/17 09:02:46;;;;;;;13.03;6.57;;;;;;;23.76;37.65;98640.91;4942593;29;20693;-59
2023/06/17 09:05:18;;;;;;;9.53;6.67;;;;;;;23.86;37.26;98641.13;4942848;28;20223;-60
2023/06/17 09:07:44;;;;;;;8.97;6.73;;;;;;;23.94;38.29;98640.72;4946518;29;20269;-60
2023/06/17 09:10:43;;;;;;;10.43;6.93;;;;;;;24.06;37.05;98635.38;4940932;28;20225;-60
2023/06/17 09:13:09;;;;;;;10.67;6.80;;;;;;;24.07;36.68;98637.00;4940643;29;20243;-60
2023/06/17 09:15:42;;;;;;;7.83;6.87;;;;;;;23.95;36.15;98630.88;4944034;28;20237;-60
2023/06/17 09:18:09;;;;;;;9.13;6.50;;;;;;;24.07;36.64;98631.66;4941508;29;20241;-60
2023/06/17 09:20:35;;;;;;;9.67;6.63;;;;;;;24.22;35.96;98627.66;4944158;28;20230;-60
2023/06/17 09:23:02;;;;;;;7.83;6.17;;;;;;;24.23;36.48;98634.59;4942203;29;20245;-60
2023/06/17 09:25:28;;;;;;;9.17;6.33;;;;;;;24.43;35.70;98628.78;4945157;28;20225;-60
2023/06/17 09:27:56;;;;;;;7.70;6.20;;;;;;;24.38;34.43;98623.41;4940738;28;20219;-60
2023/06/17 09:30:23;;;;;;;7.80;6.67;;;;;;;24.54;35.75;98624.44;4944433;28;20234;-61
2023/06/17 09:32:52;;;;;;;9.53;6.87;;;;;;;24.62;34.86;98622.16;4940246;29;20266;-61
2023/06/17 09:35:19;;;;;;;8.03;6.93;;;;;;;24.60;34.74;98621.59;4929793;29;20223;-61
2023/06/17 09:37:49;;;;;;;8.10;6.27;;;;;;;24.82;35.96;98615.56;4945227;29;20238;-61
2023/06/17 09:40:19;;;;;;;9.30;6.47;;;;;;;24.83;34.11;98616.38;4939284;28;20246;-61
2023/06/17 09:42:52;;;;;;;10.33;7.30;;;;;;;24.75;33.43;98614.91;4945383;29;20719;-61
2023/06/17 09:45:24;;;;;;;9.70;6.40;;;;;;;24.70;33.61;98610.28;4938043;28;20233;-61
2023/06/17 09:47:53;;;;;;;8.27;6.47;;;;;;;24.75;32.93;98612.25;4940493;28;20258;-60
2023/06/17 09:50:22;;;;;;;9.23;5.80;;;;;;;24.96;33.49;98604.53;4942940;28;20223;-60
2023/06/17 09:52:52;;;;;;;7.13;5.90;;;;;;;24.94;32.76;98612.78;4942039;29;20561;-60
2023/06/17 09:55:20;;;;;;;6.40;5.20;;;;;;;25.09;31.66;98598.84;4939692;29;20247;-60
2023/06/17 09:57:47;;;;;;;9.53;5.67;;;;;;;25.16;31.39;98604.81;4945404;28;20229;-60
2023/06/17 10:00:19;;;;;;;5.87;4.40;;;;;;;25.33;29.27;98609.28;4941990;28;20229;-60
2023/06/17 10:02:46;;;;;;;7.13;5.50;;;;;;;25.40;30.44;98609.91;4943311;29;20699;-61
2023/06/17 10:05:20;;;;;;;7.90;4.60;;;;;;;25.52;28.97;98603.66;4940875;28;20224;-60
2023/06/17 10:07:47;;;;;;;8.97;4.90;;;;;;;25.48;29.61;98598.78;4945099;29;20224;-60
2023/06/17 10:10:19;;;;;;;7.93;4.60;;;;;;;25.71;29.83;98604.94;4940090;28;20351;-60
2023/06/17 10:12:45;;;;;;;5.50;4.60;;;;;;;25.83;28.85;98595.97;4942693;29;20693;-60
2023/06/17 10:15:21;;;;;;;5.03;3.83;;;;;;;25.69;25.47;98595.56;4940233;28;20240;-60
2023/06/17 10:17:50;;;;;;;4.32;3.58;;;;;;;25.81;25.71;98603.44;4941025;29;20225;-61
2023/06/17 10:20:21;;;;;;;4.57;3.90;;;;;;;25.72;26.42;98601.19;4940566;28;20225;-60
2023/06/17 10:22:54;;;;;;;6.00;4.00;;;;;;;25.81;27.25;98595.41;4942351;29;20243;-60
2023/06/17 10:25:21;;;;;;;7.27;3.60;;;;;;;25.86;27.25;98595.47;4940343;28;20348;-60
2023/06/17 10:27:47;;;;;;;5.47;3.97;;;;;;;25.99;27.27;98595.06;4943357;29;20280;-60
2023/06/17 10:30:24;;;;;;;4.03;3.30;;;;;;;26.14;25.00;98598.97;4937815;29;20282;-60
2023/06/17 10:32:53;;;;;;;4.25;3.03;;;;;;;26.28;23.75;98597.50;4937912;28;20230;-60
2023/06/17 10:35:21;;;;;;;4.43;3.40;;;;;;;25.73;23.81;98602.03;4942659;28;20223;-60
2023/06/17 10:37:48;;;;;;;6.22;3.25;;;;;;;26.09;23.98;98588.97;4943303;28;20225;-60
2023/06/17 10:40:23;;;;;;;5.20;3.30;;;;;;;26.18;25.43;98589.38;4941696;28;20277;-60
2023/06/17 10:42:57;;;;;;;4.38;3.55;;;;;;;26.31;24.91;98590.81;4925748;29;20225;-60
2023/06/17 10:45:25;;;;;;;9.55;4.03;;;;;;;26.43;26.77;98596.78;4944443;28;20319;-60
2023/06/17 10:47:51;;;;;;;6.30;3.78;;;;;;;26.37;26.23;98595.13;4938630;29;20233;-60
2023/06/17 10:50:22;;;;;;;6.57;3.90;;;;;;;26.67;26.47;98599.09;4943336;28;20783;-60
2023/06/17 10:52:56;;;;;;;5.72;4.07;;;;;;;26.51;25.52;98590.16;4940976;29;20931;-60
2023/06/17 10:55:22;;;;;;;6.38;3.83;;;;;;;26.70;25.48;98598.59;4940386;28;20224;-60
2023/06/17 10:57:51;;;;;;;4.67;3.50;;;;;;;26.61;26.07;98592.91;4944378;28;20231;-60
2023/06/17 11:00:18;;;;;;;4.75;3.67;;;;;;;26.85;25.03;98589.88;4937892;28;20241;-60
2023/06/17 11:02:45;;;;;;;5.50;4.07;;;;;;;26.81;26.22;98591.41;4942000;29;20237;-61
2023/06/17 11:05:18;;;;;;;6.43;4.20;;;;;;;26.75;24.44;98595.94;4939980;29;20309;-60
2023/06/17 11:07:46;;;;;;;4.60;3.53;;;;;;;26.70;25.92;98593.25;4942057;29;20221;-61
2023/06/17 11:10:18;;;;;;;5.50;4.30;;;;;;;26.77;25.26;98593.00;4942073;28;20231;-61
2023/06/17 11:12:46;;;;;;;5.23;4.10;;;;;;;26.84;26.57;98588.25;4928982;29;20237;-61
2023/06/17 11:15:18;;;;;;;8.90;4.55;;;;;;;26.89;27.38;98587.50;4940579;29;20233;-61
2023/06/17 11:17:44;;;;;;;4.35;3.75;;;;;;;27.12;27.13;98580.91;4938863;29;20262;-61
2023/06/17 11:20:15;;;;;;;7.45;4.30;;;;;;;27.37;26.29;98576.72;4941401;28;20248;-60
2023/06/17 11:22:41;;;;;;;7.20;4.20;;;;;;;27.53;25.54;98569.56;4941403;29;20232;-61
2023/06/17 11:25:10;;;;;;;5.85;4.00;;;;;;;27.62;25.08;98578.69;4940032;28;20266;-59
2023/06/17 11:27:38;;;;;;;7.88;3.42;;;;;;;27.78;24.71;98578.72;4939527;29;20720;-59
2023/06/17 11:30:08;;;;;;;6.68;3.90;;;;;;;27.70;24.59;98574.69;4937450;28;20224;-61
2023/06/17 11:32:35;;;;;;;5.05;3.15;;;;;;;27.72;24.54;98577.09;4941081;28;20815;-61
2023/06/17 11:35:03;;;;;;;8.00;3.83;;;;;;;27.74;23.68;98572.28;4938058;28;20227;-60
2023/06/17 11:37:30;;;;;;;5.70;4.00;;;;;;;27.70;23.76;98572.81;4942384;28;20243;-61
2023/06/17 11:39:58;;;;;;;6.22;4.10;;;;;;;27.44;24.11;98573.78;4938402;28;20331;-61
2023/06/17 11:42:26;;;;;;;5.20;4.20;;;;;;;27.18;24.61;98563.78;4942557;28;20242;-61
2023/06/17 11:44:54;;;;;;;6.20;3.90;;;;;;;27.34;24.71;98561.16;4938470;28;20648;-61